createdAt,value
2022-09-18T00:02:27.580Z,100.00
2022-09-18T00:04:57.782Z,100.00
2022-09-18T00:07:28.133Z,100.00
2022-09-18T00:09:58.724Z,100.00
2022-09-18T00:12:30.869Z,100.00
2022-09-18T00:17:59.586Z,100.00
2022-09-18T00:20:29.952Z,100.00
2022-09-18T00:23:00.245Z,100.00
2022-09-18T00:25:31.468Z,100.00
2022-09-18T00:28:02.098Z,100.00
2022-09-18T00:30:33.955Z,100.00
2022-09-18T00:33:04.370Z,100.00
2022-09-18T00:35:34.558Z,100.00
2022-09-18T00:38:05.189Z,100.00
2022-09-18T00:40:35.776Z,100.00
2022-09-18T00:43:22.164Z,100.00
2022-09-18T00:46:28.771Z,100.00
2022-09-18T00:49:10.974Z,100.00
2022-09-18T00:51:43.382Z,100.00
2022-09-18T00:54:25.573Z,100.00
2022-09-18T00:56:59.086Z,100.00
2022-09-18T00:59:32.096Z,100.00
2022-09-18T01:02:04.236Z,100.00
2022-09-18T01:04:34.963Z,100.00
2022-09-18T01:07:19.899Z,100.00
2022-09-18T01:09:57.234Z,100.00
2022-09-18T01:12:42.068Z,100.00
2022-09-18T01:15:24.334Z,100.00
2022-09-18T01:18:00.207Z,100.00
2022-09-18T01:20:33.371Z,100.00
2022-09-18T01:23:15.647Z,100.00
2022-09-18T01:26:03.453Z,100.00
2022-09-18T01:28:45.883Z,100.00
2022-09-18T01:31:19.198Z,100.00
2022-09-18T01:33:55.448Z,100.00
2022-09-18T01:36:28.723Z,100.00
2022-09-18T01:39:02.168Z,100.00
2022-09-18T01:41:35.096Z,100.00
2022-09-18T01:44:09.238Z,100.00
2022-09-18T01:46:42.700Z,100.00
2022-09-18T01:49:16.061Z,100.00
2022-09-18T01:51:50.664Z,100.00
2022-09-18T01:54:24.803Z,100.00
2022-09-18T01:57:06.729Z,100.00
2022-09-18T01:59:51.719Z,100.00
2022-09-18T02:02:37.357Z,100.00
2022-09-18T02:05:10.641Z,100.00
2022-09-18T02:08:00.515Z,100.00
2022-09-18T02:10:33.746Z,100.00
2022-09-18T02:13:06.871Z,100.00
2022-09-18T02:15:40.359Z,100.00
2022-09-18T02:18:14.158Z,100.00
2022-09-18T02:20:46.944Z,100.00
2022-09-18T02:23:18.167Z,100.00
2022-09-18T02:25:54.102Z,100.00
2022-09-18T02:28:27.600Z,100.00
2022-09-18T02:30:58.395Z,100.00
2022-09-18T02:33:34.499Z,100.00
2022-09-18T02:36:29.527Z,100.00
2022-09-18T02:39:31.629Z,100.00
2022-09-18T02:42:25.593Z,100.00
2022-09-18T02:45:15.318Z,100.00
2022-09-18T02:47:51.251Z,100.00
2022-09-18T02:50:27.302Z,100.00
2022-09-18T02:53:16.909Z,100.00
2022-09-18T02:55:52.477Z,100.00
2022-09-18T02:58:28.481Z,100.00
2022-09-18T03:01:01.570Z,100.00
2022-09-18T03:03:33.513Z,100.00
2022-09-18T03:06:03.947Z,100.00
2022-09-18T03:08:35.102Z,100.00
2022-09-18T03:11:05.842Z,100.00
2022-09-18T03:13:37.892Z,100.00
2022-09-18T03:16:08.351Z,100.00
2022-09-18T03:18:39.233Z,100.00
2022-09-18T03:21:09.574Z,100.00
2022-09-18T03:23:43.548Z,100.00
2022-09-18T03:26:11.925Z,100.00
2022-09-18T03:28:42.346Z,100.00
2022-09-18T03:31:16.707Z,100.00
2022-09-18T03:33:48.230Z,100.00
2022-09-18T03:36:18.522Z,100.00
2022-09-18T03:38:48.699Z,100.00
2022-09-18T03:41:18.963Z,100.00
2022-09-18T03:43:49.490Z,100.00
2022-09-18T03:46:19.954Z,100.00
2022-09-18T03:48:51.830Z,100.00
2022-09-18T03:51:22.961Z,100.00
2022-09-18T03:53:53.327Z,100.00
2022-09-18T03:56:23.647Z,100.00
2022-09-18T03:58:54.188Z,100.00
2022-09-18T04:01:24.643Z,100.00
2022-09-18T04:03:55.328Z,100.00
2022-09-18T04:06:25.792Z,100.00
2022-09-18T04:08:56.342Z,100.00
2022-09-18T04:11:47.374Z,100.00
2022-09-18T04:14:17.754Z,100.00
2022-09-18T04:16:50.162Z,100.00
2022-09-18T04:19:20.779Z,100.00
2022-09-18T04:21:51.446Z,100.00
2022-09-18T04:24:22.242Z,100.00
2022-09-18T04:26:52.715Z,100.00
2022-09-18T04:29:23.102Z,100.00
2022-09-18T04:31:53.660Z,100.00
2022-09-18T04:34:23.899Z,100.00
2022-09-18T04:36:54.411Z,100.00
2022-09-18T04:39:24.753Z,100.00
2022-09-18T04:41:55.431Z,100.00
2022-09-18T04:44:25.947Z,100.00
2022-09-18T04:46:56.467Z,100.00
2022-09-18T04:49:26.940Z,100.00
2022-09-18T04:51:57.160Z,100.00
2022-09-18T04:54:28.127Z,100.00
2022-09-18T04:56:58.593Z,100.00
2022-09-18T04:59:29.833Z,100.00
2022-09-18T05:02:00.319Z,100.00
2022-09-18T05:04:30.677Z,100.00
2022-09-18T05:07:05.566Z,100.00
2022-09-18T05:09:36.359Z,100.00
2022-09-18T05:12:07.046Z,100.00
2022-09-18T05:14:37.448Z,100.00
2022-09-18T05:17:08.044Z,100.00
2022-09-18T05:19:42.247Z,100.00
2022-09-18T05:22:13.230Z,100.00
2022-09-18T05:24:43.535Z,100.00
2022-09-18T05:27:13.768Z,100.00
2022-09-18T05:29:44.274Z,100.00
2022-09-18T05:32:14.391Z,100.00
2022-09-18T05:34:44.683Z,100.00
2022-09-18T05:37:18.980Z,100.00
2022-09-18T05:39:49.358Z,100.00
2022-09-18T05:42:20.065Z,100.00
2022-09-18T05:45:01.898Z,100.00
2022-09-18T05:47:31.804Z,100.00
2022-09-18T05:50:02.228Z,100.00
2022-09-18T05:52:33.027Z,100.00
2022-09-18T05:55:03.318Z,100.00
2022-09-18T05:57:34.118Z,100.00
2022-09-18T06:00:04.947Z,100.00
2022-09-18T06:02:35.496Z,100.00
2022-09-18T06:05:06.504Z,100.00
2022-09-18T06:07:37.825Z,100.00
2022-09-18T06:10:08.683Z,100.00
2022-09-18T06:12:40.707Z,100.00
2022-09-18T06:15:11.972Z,100.00
2022-09-18T06:17:43.173Z,100.00
2022-09-18T06:20:13.487Z,100.00
2022-09-18T06:22:44.054Z,100.00
2022-09-18T06:25:14.527Z,98.04
2022-09-18T06:27:44.971Z,98.66
2022-09-18T06:30:19.306Z,97.63
2022-09-18T06:33:09.414Z,97.63
2022-09-18T06:35:41.123Z,98.54
2022-09-18T06:38:11.753Z,93.36
2022-09-18T06:40:50.867Z,92.67
2022-09-18T06:43:22.028Z,91.85
2022-09-18T06:45:55.525Z,88.78
2022-09-18T06:48:27.429Z,90.01
2022-09-18T06:50:59.666Z,86.30
2022-09-18T06:53:35.440Z,86.30
2022-09-18T06:56:07.337Z,85.03
2022-09-18T06:58:38.092Z,83.96
2022-09-18T07:01:11.085Z,83.96
2022-09-18T07:03:46.187Z,87.02
2022-09-18T07:06:16.802Z,83.23
2022-09-18T07:08:47.171Z,82.19
2022-09-18T07:11:19.717Z,83.02
2022-09-18T07:13:50.122Z,83.02
2022-09-18T07:16:30.795Z,84.92
2022-09-18T07:19:01.872Z,82.98
2022-09-18T07:21:32.236Z,82.98
2022-09-18T07:24:05.799Z,83.01
2022-09-18T07:26:37.341Z,81.79
2022-09-18T07:29:10.083Z,82.82
2022-09-18T07:31:40.601Z,82.26
2022-09-18T07:34:12.399Z,82.26
2022-09-18T07:36:42.951Z,82.47
2022-09-18T07:39:15.693Z,84.74
2022-09-18T07:41:57.131Z,84.74
2022-09-18T07:44:29.123Z,83.48
2022-09-18T07:47:17.153Z,84.59
2022-09-18T07:53:30.962Z,78.77
2022-09-18T08:36:22.364Z,71.28
2022-09-18T08:42:26.361Z,75.35
2022-09-18T08:45:02.407Z,75.35
2022-09-18T08:47:53.221Z,77.39
2022-09-18T08:50:29.753Z,78.20
2022-09-18T08:53:15.569Z,77.76
2022-09-18T08:55:46.423Z,77.30
2022-09-18T08:58:37.468Z,77.30
2022-09-18T09:01:13.958Z,76.03
2022-09-18T09:04:02.307Z,76.03
2022-09-18T09:07:03.674Z,73.89
2022-09-18T09:10:04.112Z,70.61
2022-09-18T09:12:59.510Z,71.08
2022-09-18T09:15:35.762Z,71.08
2022-09-18T09:18:23.602Z,69.07
2022-09-18T09:21:01.177Z,70.81
2022-09-18T09:23:43.348Z,70.11
2022-09-18T09:26:23.841Z,66.51
2022-09-18T09:29:03.168Z,68.53
2022-09-18T09:31:39.422Z,68.53
2022-09-18T09:34:21.057Z,69.57
2022-09-18T09:36:54.842Z,68.08
2022-09-18T09:39:30.540Z,67.00
2022-09-18T09:42:25.096Z,69.80
2022-09-18T09:45:04.334Z,69.44
2022-09-18T09:47:57.517Z,72.31
2022-09-18T09:50:39.311Z,75.41
2022-09-18T09:53:16.607Z,75.41
2022-09-18T09:56:06.244Z,76.17
2022-09-18T09:58:48.671Z,74.39
2022-09-18T10:01:31.845Z,73.10
2022-09-18T10:04:14.436Z,70.72
2022-09-18T10:06:53.405Z,70.72
2022-09-18T10:09:49.240Z,70.77
2022-09-18T10:12:28.647Z,70.83
2022-09-18T10:15:09.013Z,70.48
2022-09-18T10:17:44.313Z,70.48
2022-09-18T10:20:22.001Z,68.60
2022-09-18T10:22:57.560Z,65.79
2022-09-18T10:25:30.987Z,65.79
2022-09-18T10:28:03.020Z,64.24
2022-09-18T10:30:33.345Z,66.02
2022-09-18T10:33:03.623Z,65.40
2022-09-18T10:35:45.444Z,66.12
2022-09-18T10:38:27.566Z,66.12
2022-09-18T10:41:12.940Z,65.66
2022-09-18T10:43:55.652Z,64.61
2022-09-18T10:46:32.531Z,64.95
2022-09-18T10:49:08.709Z,64.65
2022-09-18T10:51:39.108Z,64.65
2022-09-18T10:54:24.171Z,61.71
2022-09-18T10:57:23.502Z,61.71
2022-09-18T10:59:54.013Z,67.49
2022-09-18T11:02:28.598Z,68.91
2022-09-18T11:04:59.365Z,68.91
2022-09-18T11:07:30.337Z,69.40
2022-09-18T11:10:03.527Z,67.15
2022-09-18T11:12:42.820Z,67.26
2022-09-18T11:15:13.620Z,73.09
2022-09-18T11:20:47.566Z,72.09
2022-09-18T11:23:31.178Z,72.09
2022-09-18T11:26:13.819Z,68.77
2022-09-18T11:28:45.520Z,66.01
2022-09-18T11:31:21.632Z,61.49
2022-09-18T11:33:57.837Z,61.49
2022-09-18T11:36:33.246Z,61.49
2022-09-18T11:39:13.906Z,60.27
2022-09-18T11:41:46.542Z,59.54
2022-09-18T11:44:31.175Z,58.58
2022-09-18T11:47:28.216Z,62.69
2022-09-18T11:50:10.086Z,64.08
2022-09-18T11:52:43.719Z,63.94
2022-09-18T11:55:26.196Z,63.94
2022-09-18T11:58:14.693Z,61.76
2022-09-18T12:00:48.029Z,62.38
2022-09-18T12:03:30.679Z,62.68
2022-09-18T12:06:23.647Z,66.78
2022-09-18T12:09:13.368Z,67.48
2022-09-18T12:12:10.930Z,67.48
2022-09-18T12:14:47.479Z,66.55
2022-09-18T12:17:24.423Z,64.20
2022-09-18T12:19:59.167Z,65.41
2022-09-18T12:22:39.799Z,65.55
2022-09-18T12:25:19.404Z,67.74
2022-09-18T12:28:06.069Z,69.92
2022-09-18T12:30:47.227Z,65.86
2022-09-18T12:33:40.229Z,64.00
2022-09-18T12:39:51.242Z,56.16
2022-09-18T12:42:27.393Z,56.16
2022-09-18T12:45:03.383Z,55.35
2022-09-18T12:47:55.307Z,54.00
2022-09-18T12:50:37.215Z,51.29
2022-09-18T12:53:32.217Z,51.29
2022-09-18T12:56:14.533Z,53.29
2022-09-18T12:58:50.774Z,51.66
2022-09-18T13:01:24.282Z,50.37
2022-09-18T13:03:58.097Z,51.16
2022-09-18T13:06:37.791Z,53.48
2022-09-18T13:09:17.742Z,54.78
2022-09-18T13:11:53.095Z,57.51
2022-09-18T13:14:43.971Z,57.30
2022-09-18T13:17:24.207Z,57.03
2022-09-18T13:20:22.113Z,56.10
2022-09-18T13:22:54.075Z,56.10
2022-09-18T13:25:39.616Z,63.41
2022-09-18T13:28:28.544Z,63.41
2022-09-18T13:31:28.175Z,56.62
2022-09-18T13:34:07.168Z,56.62
2022-09-18T13:36:46.502Z,57.18
2022-09-18T13:39:24.780Z,60.01
2022-09-18T13:42:09.727Z,60.01
2022-09-18T13:44:51.254Z,60.27
2022-09-18T13:47:32.875Z,55.27
2022-09-18T13:50:03.882Z,52.18
2022-09-18T13:52:37.965Z,52.18
2022-09-18T13:55:18.509Z,53.38
2022-09-18T13:57:49.375Z,51.43
2022-09-18T14:00:24.171Z,53.54
2022-09-18T14:03:13.065Z,56.21
2022-09-18T14:05:50.303Z,62.42
2022-09-18T14:08:24.367Z,62.42
2022-09-18T14:11:15.974Z,63.90
2022-09-18T14:13:47.922Z,64.75
2022-09-18T14:16:24.587Z,68.87
2022-09-18T14:19:00.708Z,68.87
2022-09-18T14:21:43.019Z,70.42
2022-09-18T14:24:42.658Z,71.21
2022-09-18T14:27:36.850Z,71.20
2022-09-18T14:30:40.182Z,70.12
2022-09-18T14:33:19.277Z,70.12
2022-09-18T14:36:01.205Z,70.92
2022-09-18T14:38:37.326Z,70.92
2022-09-18T14:41:13.374Z,68.72
2022-09-18T14:43:49.408Z,68.72
2022-09-18T14:46:25.145Z,66.22
2022-09-18T14:48:57.651Z,65.08
2022-09-18T14:51:44.868Z,63.96
2022-09-18T14:54:05.574Z,63.96
2022-09-18T14:56:37.976Z,63.81
2022-09-18T14:59:13.984Z,62.50
2022-09-18T15:01:52.981Z,62.50
2022-09-18T15:04:33.938Z,61.41
2022-09-18T15:07:05.439Z,62.30
2022-09-18T15:09:36.397Z,62.30
2022-09-18T15:12:15.439Z,62.41
2022-09-18T15:14:48.703Z,60.96
2022-09-18T15:17:38.508Z,60.96
2022-09-18T15:20:11.897Z,59.27
2022-09-18T15:22:55.931Z,57.73
2022-09-18T15:25:23.862Z,55.42
2022-09-18T15:27:58.756Z,55.71
2022-09-18T15:30:29.707Z,55.71
2022-09-18T15:33:03.272Z,55.66
2022-09-18T15:35:36.400Z,55.86
2022-09-18T15:38:18.489Z,55.86
2022-09-18T15:40:49.806Z,55.24
2022-09-18T15:43:35.138Z,55.24
2022-09-18T15:46:11.468Z,55.90
2022-09-18T15:48:47.532Z,55.79
2022-09-18T15:51:26.153Z,55.79
2022-09-18T15:54:08.416Z,58.62
2022-09-18T15:56:53.067Z,62.00
2022-09-18T15:59:33.740Z,62.00
2022-09-18T16:05:16.394Z,66.40
2022-09-18T16:08:01.382Z,69.79
2022-09-18T16:10:38.165Z,71.16
2022-09-18T16:13:35.338Z,68.62
2022-09-18T16:16:14.705Z,68.62
2022-09-18T16:21:47.581Z,68.63
2022-09-18T16:24:23.732Z,68.57
2022-09-18T16:26:59.026Z,66.30
2022-09-18T16:29:31.464Z,69.79
2022-09-18T16:32:02.387Z,69.79
2022-09-18T16:34:34.762Z,61.13
2022-09-18T16:37:06.258Z,56.92
2022-09-18T16:39:37.318Z,56.08
2022-09-18T16:42:32.798Z,56.08
2022-09-18T16:45:07.833Z,58.83
2022-09-18T16:47:42.886Z,58.83
2022-09-18T16:50:16.635Z,60.03
2022-09-18T16:52:53.550Z,61.45
2022-09-18T16:55:45.178Z,61.79
2022-09-18T16:58:21.453Z,61.79
2022-09-18T17:00:54.905Z,62.41
2022-09-18T17:03:29.485Z,62.67
2022-09-18T17:06:01.484Z,63.20
2022-09-18T17:08:34.752Z,63.20
2022-09-18T17:11:07.225Z,63.58
2022-09-18T17:13:46.398Z,64.87
2022-09-18T17:16:41.242Z,64.64
2022-09-18T17:18:53.895Z,64.89
2022-09-18T17:21:27.755Z,64.89
2022-09-18T17:24:25.006Z,64.67
2022-09-18T17:26:56.212Z,65.37
2022-09-18T17:29:27.502Z,66.81
2022-09-18T17:31:58.106Z,67.23
2022-09-18T17:34:30.386Z,68.60
2022-09-18T17:37:06.570Z,68.92
2022-09-18T17:40:14.262Z,68.92
2022-09-18T17:42:43.042Z,71.84
2022-09-18T17:45:16.656Z,71.84
2022-09-18T17:47:58.385Z,70.10
2022-09-18T17:50:36.006Z,73.62
2022-09-18T17:56:28.637Z,72.57
2022-09-18T17:59:01.849Z,72.97
2022-09-18T18:01:44.418Z,73.22
2022-09-18T18:04:17.721Z,73.66
2022-09-18T18:06:51.800Z,73.66
2022-09-18T18:09:24.428Z,74.54
2022-09-18T18:11:58.612Z,76.85
2022-09-18T18:14:39.222Z,74.99
2022-09-18T18:17:11.694Z,74.99
2022-09-18T18:19:42.055Z,75.99
2022-09-18T18:22:15.201Z,76.27
2022-09-18T18:24:49.379Z,77.55
2022-09-18T18:27:24.957Z,77.55
2022-09-18T18:29:56.860Z,78.29
2022-09-18T18:32:27.708Z,77.82
2022-09-18T18:35:01.727Z,77.82
2022-09-18T18:37:34.705Z,79.95
2022-09-18T18:40:05.957Z,79.95
2022-09-18T18:42:37.271Z,81.29
2022-09-18T18:45:45.634Z,79.85
2022-09-18T18:48:16.343Z,79.86
2022-09-18T18:50:46.808Z,78.98
2022-09-18T18:53:22.091Z,78.98
2022-09-18T18:55:57.918Z,80.01
2022-09-18T18:58:34.433Z,79.77
2022-09-18T19:04:05.688Z,80.31
2022-09-18T19:06:39.149Z,80.35
2022-09-18T19:09:23.434Z,80.35
2022-09-18T19:12:18.316Z,79.79
2022-09-18T19:14:52.390Z,81.34
2022-09-18T19:17:25.018Z,81.86
2022-09-18T19:20:04.581Z,80.60
2022-09-18T19:26:20.564Z,81.58
2022-09-18T19:29:23.976Z,82.57
2022-09-18T19:32:02.801Z,83.54
2022-09-18T19:34:33.366Z,83.54
2022-09-18T19:37:11.691Z,82.92
2022-09-18T19:39:40.180Z,85.30
2022-09-18T19:42:31.252Z,83.71
2022-09-18T19:45:05.090Z,83.71
2022-09-18T19:47:46.722Z,83.51
2022-09-18T19:50:30.573Z,85.47
2022-09-18T19:53:04.782Z,85.10
2022-09-18T19:55:35.806Z,85.10
2022-09-18T20:01:26.098Z,87.80
2022-09-18T20:03:57.531Z,87.80
2022-09-18T20:06:33.767Z,88.29
2022-09-18T20:09:05.069Z,87.85
2022-09-18T20:11:47.612Z,87.85
2022-09-18T20:14:20.034Z,87.98
2022-09-18T20:16:50.730Z,87.98
2022-09-18T20:22:21.442Z,87.70
2022-09-18T20:24:55.296Z,88.11
2022-09-18T20:27:27.530Z,88.11
2022-09-18T20:30:02.015Z,89.68
2022-09-18T20:32:35.943Z,88.23
2022-09-18T20:35:07.596Z,88.67
2022-09-18T20:37:38.850Z,89.27
2022-09-18T20:40:11.481Z,88.47
2022-09-18T20:42:42.782Z,88.47
2022-09-18T20:45:16.318Z,89.32
2022-09-18T20:47:50.124Z,90.78
2022-09-18T20:50:21.213Z,89.08
2022-09-18T20:52:53.385Z,89.08
2022-09-18T20:55:24.015Z,90.57
2022-09-18T20:57:58.211Z,88.73
2022-09-18T21:00:27.824Z,90.35
2022-09-18T21:03:01.034Z,89.80
2022-09-18T21:05:31.629Z,89.80
2022-09-18T21:08:02.878Z,89.25
2022-09-18T21:10:33.597Z,89.25
2022-09-18T21:13:04.521Z,88.75
2022-09-18T21:15:37.022Z,88.75
2022-09-18T21:18:07.386Z,90.12
2022-09-18T21:20:38.361Z,89.81
2022-09-18T21:23:12.520Z,89.81
2022-09-18T21:25:42.960Z,90.28
2022-09-18T21:28:13.722Z,90.28
2022-09-18T21:30:44.086Z,90.60
2022-09-18T21:33:14.856Z,91.24
2022-09-18T21:35:52.851Z,91.24
2022-09-18T21:38:23.104Z,91.90
2022-09-18T21:40:53.396Z,91.90
2022-09-18T21:43:23.616Z,92.23
2022-09-18T21:45:54.230Z,92.59
2022-09-18T21:48:24.726Z,92.59
2022-09-18T21:50:55.370Z,91.81
2022-09-18T21:53:25.633Z,92.06
2022-09-18T21:56:04.598Z,92.06
2022-09-18T21:58:39.973Z,92.60
2022-09-18T22:01:19.502Z,92.81
2022-09-18T22:03:54.628Z,94.23
2022-09-18T22:06:27.629Z,94.23
2022-09-18T22:08:59.612Z,94.55
2022-09-18T22:11:35.899Z,95.16
2022-09-18T22:14:09.376Z,95.16
2022-09-18T22:16:40.749Z,96.01
2022-09-18T22:19:11.976Z,96.31
2022-09-18T22:21:44.887Z,96.31
2022-09-18T22:24:17.837Z,97.92
2022-09-18T22:26:59.348Z,98.89
2022-09-18T22:29:32.675Z,99.11
2022-09-18T22:32:03.884Z,99.26
2022-09-18T22:34:35.050Z,99.43
2022-09-18T22:37:05.344Z,99.40
2022-09-18T22:39:35.610Z,99.75
2022-09-18T22:42:05.863Z,100.00
2022-09-18T22:44:36.235Z,100.00
2022-09-18T22:47:06.837Z,100.00
2022-09-18T22:49:37.748Z,100.00
2022-09-18T22:52:08.039Z,100.00
2022-09-18T22:54:38.640Z,100.00
2022-09-18T22:57:08.927Z,100.00
2022-09-18T22:59:39.047Z,100.00
2022-09-18T23:02:09.311Z,100.00
2022-09-18T23:04:40.289Z,100.00
2022-09-18T23:07:10.860Z,100.00
2022-09-18T23:09:41.879Z,100.00
2022-09-18T23:12:12.269Z,100.00
2022-09-18T23:14:43.048Z,100.00
2022-09-18T23:17:14.220Z,100.00
2022-09-18T23:19:44.462Z,100.00
2022-09-18T23:22:14.765Z,100.00
2022-09-18T23:24:45.309Z,100.00
2022-09-18T23:27:15.694Z,100.00
2022-09-18T23:29:46.064Z,100.00
2022-09-18T23:32:16.430Z,100.00
2022-09-18T23:34:46.724Z,100.00
2022-09-18T23:37:17.062Z,100.00
2022-09-18T23:39:47.376Z,100.00
2022-09-18T23:42:17.583Z,100.00
2022-09-18T23:44:47.815Z,100.00
2022-09-18T23:47:18.112Z,100.00
2022-09-18T23:49:48.420Z,100.00
2022-09-18T23:52:18.729Z,100.00
2022-09-18T23:54:48.962Z,100.00
2022-09-18T23:57:19.478Z,100.00
2022-09-18T23:59:52.526Z,100.00
